sensor_id;sensor_type;location;lat;lon;timestamp;pressure;altitude;pressure_sealevel;temperature;humidity
61014;BME280;46899;47.542;19.082;2023-02-20T00:01:47;101148.06;;;4.32;68.00
61014;BME280;46899;47.542;19.082;2023-02-20T00:04:50;101161.84;;;4.40;66.88
61014;BME280;46899;47.542;19.082;2023-02-20T00:07:52;101158.41;;;4.44;66.98
61014;BME280;46899;47.542;19.082;2023-02-20T00:10:56;101170.44;;;4.36;66.91
61014;BME280;46899;47.542;19.082;2023-02-20T00:13:58;101166.97;;;4.34;67.32
61014;BME280;46899;47.542;19.082;2023-02-20T00:17:01;101160.94;;;4.32;66.99
61014;BME280;46899;47.542;19.082;2023-02-20T00:20:04;101161.81;;;4.31;66.77
61014;BME280;46899;47.542;19.082;2023-02-20T00:23:08;101168.66;;;4.26;67.94
61014;BME280;46899;47.542;19.082;2023-02-20T00:26:11;101180.69;;;4.30;67.66
61014;BME280;46899;47.542;19.082;2023-02-20T00:29:20;101183.25;;;4.24;67.99
61014;BME280;46899;47.542;19.082;2023-02-20T00:32:23;101191.81;;;4.24;66.46
61014;BME280;46899;47.542;19.082;2023-02-20T00:35:25;101197.81;;;4.22;67.32
61014;BME280;46899;47.542;19.082;2023-02-20T00:38:28;101208.12;;;4.22;67.26
61014;BME280;46899;47.542;19.082;2023-02-20T00:41:31;101202.06;;;4.10;69.81
61014;BME280;46899;47.542;19.082;2023-02-20T00:44:33;101211.34;;;3.84;70.08
61014;BME280;46899;47.542;19.082;2023-02-20T00:47:36;101210.50;;;3.87;68.97
61014;BME280;46899;47.542;19.082;2023-02-20T00:50:40;101206.25;;;3.90;69.74
61014;BME280;46899;47.542;19.082;2023-02-20T00:53:43;101216.56;;;3.93;68.40
61014;BME280;46899;47.542;19.082;2023-02-20T00:56:45;101232.88;;;3.94;67.18
61014;BME280;46899;47.542;19.082;2023-02-20T00:59:48;101238.03;;;3.98;68.02
61014;BME280;46899;47.542;19.082;2023-02-20T01:02:51;101240.56;;;3.89;68.24
61014;BME280;46899;47.542;19.082;2023-02-20T01:05:54;101247.41;;;3.87;68.64
61014;BME280;46899;47.542;19.082;2023-02-20T01:08:57;101238.81;;;3.82;67.82
61014;BME280;46899;47.542;19.082;2023-02-20T01:12:00;101237.88;;;3.70;69.08
61014;BME280;46899;47.542;19.082;2023-02-20T01:15:03;101239.66;;;3.81;69.50
61014;BME280;46899;47.542;19.082;2023-02-20T01:18:06;101238.78;;;3.79;68.95
61014;BME280;46899;47.542;19.082;2023-02-20T01:21:08;101245.62;;;3.74;68.94
61014;BME280;46899;47.542;19.082;2023-02-20T01:24:11;101250.72;;;3.68;69.31
61014;BME280;46899;47.542;19.082;2023-02-20T01:27:13;101244.66;;;3.62;70.22
61014;BME280;46899;47.542;19.082;2023-02-20T01:30:16;101239.50;;;3.57;70.91
61014;BME280;46899;47.542;19.082;2023-02-20T01:33:20;101247.09;;;3.45;70.58
61014;BME280;46899;47.542;19.082;2023-02-20T01:36:22;101248.84;;;3.49;71.65
61014;BME280;46899;47.542;19.082;2023-02-20T01:39:26;101235.12;;;3.45;72.11
61014;BME280;46899;47.542;19.082;2023-02-20T01:42:30;101248.69;;;3.32;74.17
61014;BME280;46899;47.542;19.082;2023-02-20T01:45:35;101251.16;;;3.19;76.66
61014;BME280;46899;47.542;19.082;2023-02-20T01:48:38;101255.25;;;3.02;79.94
61014;BME280;46899;47.542;19.082;2023-02-20T01:51:44;101262.06;;;2.94;80.58
61014;BME280;46899;47.542;19.082;2023-02-20T01:54:51;101261.91;;;2.82;81.65
61014;BME280;46899;47.542;19.082;2023-02-20T01:57:59;101271.19;;;2.69;82.18
61014;BME280;46899;47.542;19.082;2023-02-20T02:01:04;101272.72;;;2.53;84.36
61014;BME280;46899;47.542;19.082;2023-02-20T02:04:08;101272.84;;;2.64;83.67
61014;BME280;46899;47.542;19.082;2023-02-20T02:07:11;101264.41;;;2.72;83.38
61014;BME280;46899;47.542;19.082;2023-02-20T02:10:15;101260.84;;;2.64;84.32
61014;BME280;46899;47.542;19.082;2023-02-20T02:13:19;101263.31;;;2.55;84.85
61014;BME280;46899;47.542;19.082;2023-02-20T02:16:30;101256.31;;;2.42;86.63
61014;BME280;46899;47.542;19.082;2023-02-20T02:23:06;101270.81;;;2.40;87.81
61014;BME280;46899;47.542;19.082;2023-02-20T02:39:02;101287.97;;;2.40;92.22
61014;BME280;46899;47.542;19.082;2023-02-20T02:45:21;101297.31;;;2.36;94.23
61014;BME280;46899;47.542;19.082;2023-02-20T02:48:36;101296.38;;;2.30;95.26
61014;BME280;46899;47.542;19.082;2023-02-20T02:51:41;101292.94;;;2.29;95.50
61014;BME280;46899;47.542;19.082;2023-02-20T02:54:48;101302.44;;;2.36;96.12
61014;BME280;46899;47.542;19.082;2023-02-20T02:57:51;101305.81;;;2.32;96.61
61014;BME280;46899;47.542;19.082;2023-02-20T03:00:55;101311.84;;;2.33;97.12
61014;BME280;46899;47.542;19.082;2023-02-20T03:04:00;101309.22;;;2.31;97.42
61014;BME280;46899;47.542;19.082;2023-02-20T03:07:06;101316.91;;;2.30;97.99
61014;BME280;46899;47.542;19.082;2023-02-20T03:10:14;101310.84;;;2.25;98.82
61014;BME280;46899;47.542;19.082;2023-02-20T03:13:22;101315.88;;;2.17;99.75
61014;BME280;46899;47.542;19.082;2023-02-20T03:19:54;101308.78;;;2.01;100.00
61014;BME280;46899;47.542;19.082;2023-02-20T03:22:58;101305.41;;;2.05;100.00
61014;BME280;46899;47.542;19.082;2023-02-20T03:26:08;101305.34;;;1.99;100.00
61014;BME280;46899;47.542;19.082;2023-02-20T03:29:20;101295.75;;;1.87;100.00
61014;BME280;46899;47.542;19.082;2023-02-20T03:32:26;101295.69;;;1.83;100.00
61014;BME280;46899;47.542;19.082;2023-02-20T03:35:49;101298.16;;;1.77;100.00
61014;BME280;46899;47.542;19.082;2023-02-20T03:39:13;101293.75;;;1.70;100.00
61014;BME280;46899;47.542;19.082;2023-02-20T03:42:38;101284.28;;;1.66;100.00
61014;BME280;46899;47.542;19.082;2023-02-20T03:46:02;101303.84;;;1.59;100.00
61014;BME280;46899;47.542;19.082;2023-02-20T03:49:12;101309.34;;;1.80;100.00
61014;BME280;46899;47.542;19.082;2023-02-20T03:52:16;101310.97;;;1.77;100.00
61014;BME280;46899;47.542;19.082;2023-02-20T03:55:18;101328.84;;;1.72;100.00
61014;BME280;46899;47.542;19.082;2023-02-20T03:58:22;101323.78;;;1.74;100.00
61014;BME280;46899;47.542;19.082;2023-02-20T04:01:27;101327.28;;;1.80;100.00
61014;BME280;46899;47.542;19.082;2023-02-20T04:04:32;101329.19;;;1.92;100.00
61014;BME280;46899;47.542;19.082;2023-02-20T04:07:38;101331.87;;;1.99;100.00
61014;BME280;46899;47.542;19.082;2023-02-20T04:10:46;101325.94;;;2.02;99.71
61014;BME280;46899;47.542;19.082;2023-02-20T04:13:50;101317.53;;;2.14;98.41
61014;BME280;46899;47.542;19.082;2023-02-20T04:16:57;101322.75;;;2.20;97.79
61014;BME280;46899;47.542;19.082;2023-02-20T04:20:02;101321.19;;;2.29;96.38
61014;BME280;46899;47.542;19.082;2023-02-20T04:23:17;101305.78;;;2.29;96.10
61014;BME280;46899;47.542;19.082;2023-02-20T04:26:21;101312.53;;;2.21;96.23
61014;BME280;46899;47.542;19.082;2023-02-20T04:29:26;101312.41;;;2.15;97.03
61014;BME280;46899;47.542;19.082;2023-02-20T04:32:29;101320.00;;;2.06;98.65
61014;BME280;46899;47.542;19.082;2023-02-20T04:35:32;101335.47;;;2.12;98.24
61014;BME280;46899;47.542;19.082;2023-02-20T04:38:35;101341.59;;;2.20;97.62
61014;BME280;46899;47.542;19.082;2023-02-20T04:41:38;101342.34;;;2.13;99.06
61014;BME280;46899;47.542;19.082;2023-02-20T04:44:41;101342.28;;;2.10;99.63
61014;BME280;46899;47.542;19.082;2023-02-20T04:47:45;101328.69;;;2.17;99.23
61014;BME280;46899;47.542;19.082;2023-02-20T04:50:48;101313.34;;;2.20;99.48
61014;BME280;46899;47.542;19.082;2023-02-20T04:53:51;101314.28;;;2.25;98.77
61014;BME280;46899;47.542;19.082;2023-02-20T04:56:53;101310.84;;;2.23;98.72
61014;BME280;46899;47.542;19.082;2023-02-20T04:59:56;101313.47;;;2.28;99.22
61014;BME280;46899;47.542;19.082;2023-02-20T05:02:59;101306.72;;;2.36;97.33
61014;BME280;46899;47.542;19.082;2023-02-20T05:06:01;101309.34;;;2.40;97.18
61014;BME280;46899;47.542;19.082;2023-02-20T05:09:04;101307.69;;;2.42;96.93
61014;BME280;46899;47.542;19.082;2023-02-20T05:12:07;101305.25;;;2.54;96.09
61014;BME280;46899;47.542;19.082;2023-02-20T05:15:11;101313.00;;;2.57;95.83
61014;BME280;46899;47.542;19.082;2023-02-20T05:18:22;101314.69;;;2.57;96.29
61014;BME280;46899;47.542;19.082;2023-02-20T05:21:24;101312.13;;;2.55;95.70
61014;BME280;46899;47.542;19.082;2023-02-20T05:24:46;101307.00;;;2.57;96.14
61014;BME280;46899;47.542;19.082;2023-02-20T05:27:49;101322.50;;;2.61;95.36
61014;BME280;46899;47.542;19.082;2023-02-20T05:30:52;101329.28;;;2.59;95.36
61014;BME280;46899;47.542;19.082;2023-02-20T05:33:55;101326.88;;;2.71;95.23
61014;BME280;46899;47.542;19.082;2023-02-20T05:36:57;101329.44;;;2.68;95.08
61014;BME280;46899;47.542;19.082;2023-02-20T05:40:00;101335.53;;;2.78;94.15
61014;BME280;46899;47.542;19.082;2023-02-20T05:43:02;101333.75;;;2.72;95.26
61014;BME280;46899;47.542;19.082;2023-02-20T05:46:05;101340.53;;;2.69;96.24
61014;BME280;46899;47.542;19.082;2023-02-20T05:49:08;101347.38;;;2.67;95.10
61014;BME280;46899;47.542;19.082;2023-02-20T05:52:11;101354.31;;;2.72;95.46
61014;BME280;46899;47.542;19.082;2023-02-20T05:55:14;101342.41;;;2.81;94.97
61014;BME280;46899;47.542;19.082;2023-02-20T05:58:16;101353.66;;;2.89;95.42
61014;BME280;46899;47.542;19.082;2023-02-20T06:01:27;101358.81;;;2.90;94.16
61014;BME280;46899;47.542;19.082;2023-02-20T06:04:30;101360.66;;;3.00;93.33
61014;BME280;46899;47.542;19.082;2023-02-20T06:07:33;101368.50;;;3.11;92.05
61014;BME280;46899;47.542;19.082;2023-02-20T06:10:37;101362.53;;;3.16;91.43
61014;BME280;46899;47.542;19.082;2023-02-20T06:13:39;101371.09;;;3.14;91.55
61014;BME280;46899;47.542;19.082;2023-02-20T06:16:43;101377.97;;;3.15;91.44
61014;BME280;46899;47.542;19.082;2023-02-20T06:19:45;101378.00;;;3.19;90.46
61014;BME280;46899;47.542;19.082;2023-02-20T06:22:48;101376.31;;;3.23;90.90
61014;BME280;46899;47.542;19.082;2023-02-20T06:25:51;101375.53;;;3.30;92.76
61014;BME280;46899;47.542;19.082;2023-02-20T06:28:53;101367.09;;;3.40;93.73
61014;BME280;46899;47.542;19.082;2023-02-20T06:31:59;101368.00;;;3.46;91.92
61014;BME280;46899;47.542;19.082;2023-02-20T06:35:02;101375.87;;;3.63;90.57
61014;BME280;46899;47.542;19.082;2023-02-20T06:38:04;101373.47;;;3.78;88.69
61014;BME280;46899;47.542;19.082;2023-02-20T06:41:07;101378.50;;;3.65;87.97
61014;BME280;46899;47.542;19.082;2023-02-20T06:44:09;101382.00;;;3.73;87.96
61014;BME280;46899;47.542;19.082;2023-02-20T06:47:12;101379.56;;;3.88;86.52
61014;BME280;46899;47.542;19.082;2023-02-20T06:50:15;101379.56;;;3.89;86.62
61014;BME280;46899;47.542;19.082;2023-02-20T06:53:17;101389.91;;;3.92;87.99
61014;BME280;46899;47.542;19.082;2023-02-20T06:56:21;101371.91;;;3.98;88.40
61014;BME280;46899;47.542;19.082;2023-02-20T06:59:24;101374.59;;;4.09;88.31
61014;BME280;46899;47.542;19.082;2023-02-20T07:02:26;101388.38;;;4.15;85.22
61014;BME280;46899;47.542;19.082;2023-02-20T07:05:29;101384.16;;;4.24;86.77
61014;BME280;46899;47.542;19.082;2023-02-20T07:08:31;101389.41;;;4.36;84.75
61014;BME280;46899;47.542;19.082;2023-02-20T07:11:34;101376.41;;;4.27;85.19
61014;BME280;46899;47.542;19.082;2023-02-20T07:14:37;101372.13;;;4.27;84.18
61014;BME280;46899;47.542;19.082;2023-02-20T07:17:39;101366.97;;;4.24;86.35
61014;BME280;46899;47.542;19.082;2023-02-20T07:20:42;101381.59;;;4.30;86.47
61014;BME280;46899;47.542;19.082;2023-02-20T07:23:45;101374.72;;;4.29;86.95
61014;BME280;46899;47.542;19.082;2023-02-20T07:26:48;101375.63;;;4.31;88.96
61014;BME280;46899;47.542;19.082;2023-02-20T07:29:51;101373.03;;;4.34;86.22
61014;BME280;46899;47.542;19.082;2023-02-20T07:32:53;101369.75;;;4.54;87.36
61014;BME280;46899;47.542;19.082;2023-02-20T07:35:56;101374.09;;;4.67;85.15
61014;BME280;46899;47.542;19.082;2023-02-20T07:38:59;101385.44;;;5.04;83.58
61014;BME280;46899;47.542;19.082;2023-02-20T07:42:03;101389.87;;;5.49;82.05
61014;BME280;46899;47.542;19.082;2023-02-20T07:45:08;101388.25;;;5.89;80.39
61014;BME280;46899;47.542;19.082;2023-02-20T07:48:11;101381.41;;;5.91;78.94
61014;BME280;46899;47.542;19.082;2023-02-20T07:51:14;101387.34;;;5.57;80.96
61014;BME280;46899;47.542;19.082;2023-02-20T07:54:17;101386.44;;;5.38;82.89
61014;BME280;46899;47.542;19.082;2023-02-20T07:57:19;101376.97;;;5.35;83.63
61014;BME280;46899;47.542;19.082;2023-02-20T08:00:23;101370.09;;;5.37;84.53
61014;BME280;46899;47.542;19.082;2023-02-20T08:03:26;101380.38;;;5.28;84.56
61014;BME280;46899;47.542;19.082;2023-02-20T08:06:28;101382.97;;;5.28;85.55
61014;BME280;46899;47.542;19.082;2023-02-20T08:09:31;101373.50;;;5.35;85.87
61014;BME280;46899;47.542;19.082;2023-02-20T08:12:34;101375.22;;;5.24;88.22
61014;BME280;46899;47.542;19.082;2023-02-20T08:15:36;101365.78;;;5.38;86.91
61014;BME280;46899;47.542;19.082;2023-02-20T08:18:39;101370.13;;;5.62;86.53
61014;BME280;46899;47.542;19.082;2023-02-20T08:21:41;101375.31;;;5.65;85.87
61014;BME280;46899;47.542;19.082;2023-02-20T08:24:44;101374.44;;;5.75;85.53
61014;BME280;46899;47.542;19.082;2023-02-20T08:27:47;101376.22;;;6.01;86.39
61014;BME280;46899;47.542;19.082;2023-02-20T08:30:50;101373.63;;;6.06;86.04
61014;BME280;46899;47.542;19.082;2023-02-20T08:33:53;101366.78;;;6.05;86.70
61014;BME280;46899;47.542;19.082;2023-02-20T08:36:55;101362.41;;;5.75;87.16
61014;BME280;46899;47.542;19.082;2023-02-20T08:39:58;101361.53;;;5.69;89.60
61014;BME280;46899;47.542;19.082;2023-02-20T08:43:00;101361.53;;;5.69;88.83
61014;BME280;46899;47.542;19.082;2023-02-20T08:46:03;101352.13;;;5.93;87.96
61014;BME280;46899;47.542;19.082;2023-02-20T08:49:06;101352.97;;;6.26;86.10
61014;BME280;46899;47.542;19.082;2023-02-20T08:52:09;101346.88;;;6.51;86.10
61014;BME280;46899;47.542;19.082;2023-02-20T08:55:12;101350.25;;;6.72;83.75
61014;BME280;46899;47.542;19.082;2023-02-20T08:58:23;101345.06;;;6.74;87.08
61014;BME280;46899;47.542;19.082;2023-02-20T09:01:26;101348.50;;;6.79;83.99
61014;BME280;46899;47.542;19.082;2023-02-20T09:04:29;101347.38;;;7.33;84.83
61014;BME280;46899;47.542;19.082;2023-02-20T09:07:31;101342.09;;;7.55;83.01
61014;BME280;46899;47.542;19.082;2023-02-20T09:10:35;101334.97;;;7.83;81.29
61014;BME280;46899;47.542;19.082;2023-02-20T09:13:44;101325.22;;;8.08;81.00
61014;BME280;46899;47.542;19.082;2023-02-20T09:16:50;101333.88;;;8.08;80.94
61014;BME280;46899;47.542;19.082;2023-02-20T09:19:52;101319.19;;;8.09;84.29
61014;BME280;46899;47.542;19.082;2023-02-20T09:22:56;101319.16;;;8.10;83.22
61014;BME280;46899;47.542;19.082;2023-02-20T09:25:59;101313.94;;;8.16;86.66
61014;BME280;46899;47.542;19.082;2023-02-20T09:29:01;101307.72;;;8.34;83.68
61014;BME280;46899;47.542;19.082;2023-02-20T09:32:04;101305.16;;;8.33;82.71
61014;BME280;46899;47.542;19.082;2023-02-20T09:35:08;101296.56;;;8.24;88.35
61014;BME280;46899;47.542;19.082;2023-02-20T09:38:11;101300.88;;;8.27;84.44
61014;BME280;46899;47.542;19.082;2023-02-20T09:41:23;101301.06;;;8.06;86.06
61014;BME280;46899;47.542;19.082;2023-02-20T09:50:54;101307.50;;;8.57;84.26
61014;BME280;46899;47.542;19.082;2023-02-20T09:54:03;101297.03;;;8.63;83.59
61014;BME280;46899;47.542;19.082;2023-02-20T09:57:11;101293.78;;;8.44;87.04
61014;BME280;46899;47.542;19.082;2023-02-20T10:00:20;101286.59;;;8.67;85.98
61014;BME280;46899;47.542;19.082;2023-02-20T10:03:31;101270.09;;;8.73;85.58
61014;BME280;46899;47.542;19.082;2023-02-20T10:06:36;101273.13;;;9.05;84.03
61014;BME280;46899;47.542;19.082;2023-02-20T10:09:38;101253.91;;;9.18;86.24
61014;BME280;46899;47.542;19.082;2023-02-20T10:12:43;101260.13;;;9.61;84.06
61014;BME280;46899;47.542;19.082;2023-02-20T10:15:53;101251.28;;;9.73;84.84
61014;BME280;46899;47.542;19.082;2023-02-20T10:19:14;101253.03;;;9.73;83.23
61014;BME280;46899;47.542;19.082;2023-02-20T10:25:30;101258.56;;;10.02;82.43
61014;BME280;46899;47.542;19.082;2023-02-20T10:28:35;101244.22;;;10.28;80.35
61014;BME280;46899;47.542;19.082;2023-02-20T10:31:48;101243.66;;;10.13;80.73
61014;BME280;46899;47.542;19.082;2023-02-20T10:35:03;101241.78;;;10.21;80.20
61014;BME280;46899;47.542;19.082;2023-02-20T10:38:07;101242.03;;;10.91;80.04
61014;BME280;46899;47.542;19.082;2023-02-20T10:41:19;101224.88;;;10.83;79.31
61014;BME280;46899;47.542;19.082;2023-02-20T10:44:34;101204.50;;;11.37;76.10
61014;BME280;46899;47.542;19.082;2023-02-20T10:48:11;101200.63;;;11.18;75.16
61014;BME280;46899;47.542;19.082;2023-02-20T10:51:19;101199.97;;;11.08;79.26
61014;BME280;46899;47.542;19.082;2023-02-20T10:54:32;101190.81;;;10.92;78.50
61014;BME280;46899;47.542;19.082;2023-02-20T10:57:38;101195.50;;;10.76;76.63
61014;BME280;46899;47.542;19.082;2023-02-20T11:00:52;101181.84;;;10.67;78.30
61014;BME280;46899;47.542;19.082;2023-02-20T11:07:28;101162.19;;;11.27;76.02
61014;BME280;46899;47.542;19.082;2023-02-20T11:10:30;101154.12;;;11.36;74.88
61014;BME280;46899;47.542;19.082;2023-02-20T11:13:33;101157.28;;;11.49;74.17
61014;BME280;46899;47.542;19.082;2023-02-20T11:16:38;101155.25;;;11.26;72.86
61014;BME280;46899;47.542;19.082;2023-02-20T11:22:46;101133.84;;;11.49;75.33
61014;BME280;46899;47.542;19.082;2023-02-20T11:25:50;101124.25;;;11.49;72.88
61014;BME280;46899;47.542;19.082;2023-02-20T11:32:17;101120.94;;;11.77;72.56
61014;BME280;46899;47.542;19.082;2023-02-20T11:35:25;101117.50;;;12.36;69.20
61014;BME280;46899;47.542;19.082;2023-02-20T11:38:32;101111.13;;;12.45;69.84
61014;BME280;46899;47.542;19.082;2023-02-20T11:41:36;101097.94;;;12.49;70.02
61014;BME280;46899;47.542;19.082;2023-02-20T11:44:39;101100.03;;;12.66;71.18
61014;BME280;46899;47.542;19.082;2023-02-20T11:47:42;101082.50;;;12.14;70.70
61014;BME280;46899;47.542;19.082;2023-02-20T11:53:47;101075.59;;;12.11;70.54
61014;BME280;46899;47.542;19.082;2023-02-20T11:57:20;101062.62;;;12.08;72.55
61014;BME280;46899;47.542;19.082;2023-02-20T12:00:25;101060.28;;;12.01;69.91
61014;BME280;46899;47.542;19.082;2023-02-20T12:03:29;101059.53;;;11.65;72.88
61014;BME280;46899;47.542;19.082;2023-02-20T12:09:35;101034.41;;;11.32;74.18
61014;BME280;46899;47.542;19.082;2023-02-20T12:12:37;101026.94;;;11.50;73.17
61014;BME280;46899;47.542;19.082;2023-02-20T12:15:40;101024.75;;;11.66;71.62
61014;BME280;46899;47.542;19.082;2023-02-20T12:25:26;101010.37;;;11.53;70.41
61014;BME280;46899;47.542;19.082;2023-02-20T12:32:11;101000.22;;;11.42;70.07
61014;BME280;46899;47.542;19.082;2023-02-20T12:38:43;100996.91;;;11.97;68.29
61014;BME280;46899;47.542;19.082;2023-02-20T12:41:51;100990.22;;;12.16;66.97
61014;BME280;46899;47.542;19.082;2023-02-20T12:45:18;100993.47;;;12.51;67.32
61014;BME280;46899;47.542;19.082;2023-02-20T12:48:29;100986.78;;;12.94;63.71
61014;BME280;46899;47.542;19.082;2023-02-20T13:01:25;100975.97;;;12.79;64.05
61014;BME280;46899;47.542;19.082;2023-02-20T13:04:44;100983.19;;;12.97;64.45
61014;BME280;46899;47.542;19.082;2023-02-20T13:07:55;100980.69;;;12.94;64.61
61014;BME280;46899;47.542;19.082;2023-02-20T13:10:59;100979.81;;;12.93;64.48
61014;BME280;46899;47.542;19.082;2023-02-20T13:29:37;100971.06;;;12.70;65.76
61014;BME280;46899;47.542;19.082;2023-02-20T13:32:40;100951.03;;;12.70;64.97
61014;BME280;46899;47.542;19.082;2023-02-20T13:35:51;100945.37;;;12.58;65.22
61014;BME280;46899;47.542;19.082;2023-02-20T13:45:37;100936.00;;;12.77;65.45
61014;BME280;46899;47.542;19.082;2023-02-20T13:48:44;100945.84;;;12.95;65.15
61014;BME280;46899;47.542;19.082;2023-02-20T13:51:46;100929.47;;;12.90;65.36
61014;BME280;46899;47.542;19.082;2023-02-20T13:54:49;100933.09;;;13.11;66.00
61014;BME280;46899;47.542;19.082;2023-02-20T14:01:01;100911.09;;;12.93;63.72
61014;BME280;46899;47.542;19.082;2023-02-20T14:04:05;100907.66;;;12.66;64.06
61014;BME280;46899;47.542;19.082;2023-02-20T14:07:08;100899.88;;;12.65;63.60
61014;BME280;46899;47.542;19.082;2023-02-20T14:13:20;100899.25;;;12.58;64.09
61014;BME280;46899;47.542;19.082;2023-02-20T14:16:41;100899.94;;;12.63;63.44
61014;BME280;46899;47.542;19.082;2023-02-20T14:19:46;100911.97;;;12.67;63.85
61014;BME280;46899;47.542;19.082;2023-02-20T14:23:04;100915.44;;;12.68;64.52
61014;BME280;46899;47.542;19.082;2023-02-20T14:29:32;100896.59;;;12.60;63.50
61014;BME280;46899;47.542;19.082;2023-02-20T14:32:35;100903.22;;;12.44;63.44
61014;BME280;46899;47.542;19.082;2023-02-20T14:35:43;100896.56;;;12.35;63.52
61014;BME280;46899;47.542;19.082;2023-02-20T14:39:10;100881.81;;;12.34;62.09
61014;BME280;46899;47.542;19.082;2023-02-20T14:42:19;100870.56;;;12.32;64.70
61014;BME280;46899;47.542;19.082;2023-02-20T14:45:25;100878.16;;;12.13;63.72
61014;BME280;46899;47.542;19.082;2023-02-20T14:48:30;100878.66;;;11.98;63.82
61014;BME280;46899;47.542;19.082;2023-02-20T14:51:32;100876.44;;;11.86;64.68
61014;BME280;46899;47.542;19.082;2023-02-20T14:54:39;100865.75;;;11.68;65.29
61014;BME280;46899;47.542;19.082;2023-02-20T14:57:42;100870.38;;;11.56;67.16
61014;BME280;46899;47.542;19.082;2023-02-20T15:00:45;100879.06;;;11.57;66.12
61014;BME280;46899;47.542;19.082;2023-02-20T15:04:03;100864.56;;;11.48;66.07
61014;BME280;46899;47.542;19.082;2023-02-20T15:07:10;100864.00;;;11.39;67.84
61014;BME280;46899;47.542;19.082;2023-02-20T15:10:28;100870.19;;;11.35;67.18
61014;BME280;46899;47.542;19.082;2023-02-20T15:13:35;100875.84;;;11.49;65.71
61014;BME280;46899;47.542;19.082;2023-02-20T15:16:39;100854.28;;;11.44;66.45
61014;BME280;46899;47.542;19.082;2023-02-20T15:19:43;100858.72;;;11.40;65.95
61014;BME280;46899;47.542;19.082;2023-02-20T15:22:46;100848.50;;;11.34;65.79
61014;BME280;46899;47.542;19.082;2023-02-20T15:25:49;100850.25;;;11.34;66.54
61014;BME280;46899;47.542;19.082;2023-02-20T15:32:20;100842.62;;;11.28;66.31
61014;BME280;46899;47.542;19.082;2023-02-20T15:35:25;100831.28;;;11.29;65.65
61014;BME280;46899;47.542;19.082;2023-02-20T15:38:29;100829.16;;;11.14;65.74
61014;BME280;46899;47.542;19.082;2023-02-20T15:41:32;100825.16;;;11.02;67.19
61014;BME280;46899;47.542;19.082;2023-02-20T15:44:35;100830.94;;;10.82;67.52
61014;BME280;46899;47.542;19.082;2023-02-20T15:47:37;100822.22;;;10.83;67.91
61014;BME280;46899;47.542;19.082;2023-02-20T15:50:41;100809.13;;;10.56;68.87
61014;BME280;46899;47.542;19.082;2023-02-20T15:53:44;100802.56;;;10.43;69.47
61014;BME280;46899;47.542;19.082;2023-02-20T15:56:47;100796.91;;;10.27;71.66
61014;BME280;46899;47.542;19.082;2023-02-20T15:59:49;100790.31;;;10.14;72.16
61014;BME280;46899;47.542;19.082;2023-02-20T16:02:52;100779.16;;;10.09;76.39
61014;BME280;46899;47.542;19.082;2023-02-20T16:05:55;100778.59;;;9.96;79.26
61014;BME280;46899;47.542;19.082;2023-02-20T16:08:58;100777.22;;;9.83;80.63
61014;BME280;46899;47.542;19.082;2023-02-20T16:12:01;100767.81;;;9.79;81.85
61014;BME280;46899;47.542;19.082;2023-02-20T16:15:04;100767.19;;;9.68;83.46
61014;BME280;46899;47.542;19.082;2023-02-20T16:18:08;100760.56;;;9.56;84.85
61014;BME280;46899;47.542;19.082;2023-02-20T16:21:12;100766.25;;;9.37;86.41
61014;BME280;46899;47.542;19.082;2023-02-20T16:24:16;100754.50;;;9.21;87.68
61014;BME280;46899;47.542;19.082;2023-02-20T16:30:31;100740.03;;;9.09;90.95
61014;BME280;46899;47.542;19.082;2023-02-20T16:33:35;100735.06;;;9.00;91.17
61014;BME280;46899;47.542;19.082;2023-02-20T16:36:38;100734.22;;;9.00;91.99
61014;BME280;46899;47.542;19.082;2023-02-20T16:39:41;100724.03;;;8.90;92.55
61014;BME280;46899;47.542;19.082;2023-02-20T16:42:45;100718.66;;;9.00;93.54
61014;BME280;46899;47.542;19.082;2023-02-20T16:45:50;100721.97;;;9.06;93.52
61014;BME280;46899;47.542;19.082;2023-02-20T16:48:54;100724.84;;;8.94;94.11
61014;BME280;46899;47.542;19.082;2023-02-20T16:51:56;100722.56;;;8.79;95.33
61014;BME280;46899;47.542;19.082;2023-02-20T16:55:09;100721.87;;;8.71;96.40
61014;BME280;46899;47.542;19.082;2023-02-20T16:58:17;100722.16;;;8.59;97.07
61014;BME280;46899;47.542;19.082;2023-02-20T17:01:21;100712.50;;;8.65;96.56
61014;BME280;46899;47.542;19.082;2023-02-20T17:04:24;100709.13;;;8.60;96.65
61014;BME280;46899;47.542;19.082;2023-02-20T17:07:26;100710.28;;;8.47;97.51
61014;BME280;46899;47.542;19.082;2023-02-20T17:10:31;100712.78;;;8.52;97.32
61014;BME280;46899;47.542;19.082;2023-02-20T17:13:34;100710.06;;;8.58;96.59
61014;BME280;46899;47.542;19.082;2023-02-20T17:16:37;100710.06;;;8.58;96.59
61014;BME280;46899;47.542;19.082;2023-02-20T17:19:40;100701.75;;;8.42;97.76
61014;BME280;46899;47.542;19.082;2023-02-20T17:22:44;100693.97;;;8.42;97.67
61014;BME280;46899;47.542;19.082;2023-02-20T17:25:54;100697.56;;;8.35;98.08
61014;BME280;46899;47.542;19.082;2023-02-20T17:28:56;100699.22;;;8.39;97.44
61014;BME280;46899;47.542;19.082;2023-02-20T17:31:59;100701.91;;;8.35;97.59
61014;BME280;46899;47.542;19.082;2023-02-20T17:35:02;100707.13;;;8.32;98.03
61014;BME280;46899;47.542;19.082;2023-02-20T17:38:07;100710.69;;;8.27;98.13
61014;BME280;46899;47.542;19.082;2023-02-20T17:41:10;100697.69;;;8.29;98.50
61014;BME280;46899;47.542;19.082;2023-02-20T17:44:17;100702.03;;;8.27;98.11
61014;BME280;46899;47.542;19.082;2023-02-20T17:47:20;100705.59;;;8.21;98.61
61014;BME280;46899;47.542;19.082;2023-02-20T17:50:24;100702.06;;;8.25;98.24
61014;BME280;46899;47.542;19.082;2023-02-20T17:53:26;100706.56;;;8.16;99.16
61014;BME280;46899;47.542;19.082;2023-02-20T17:56:29;100701.44;;;8.13;99.29